Time;durP1;ratioP1;P1;durP2;ratioP2;P2;SDS_P1;SDS_P2;PMS_P1;PMS_P2;Temp;Humidity;BMP_temperature;BMP_pressure;BME280_temperature;BME280_humidity;BME280_pressure;Samples;Min_cycle;Max_cycle;Signal;HPM_P1;HPM_P2
2022/03/21 00:00:29;;;;;;;15.30;9.90;;;;;;;19.06;52.04;101597.63;5133313;27;20183;-60
2022/03/21 00:02:55;;;;;;;15.23;9.57;;;;;;;19.05;51.81;101593.09;5132140;27;20402;-60
2022/03/21 00:05:21;;;;;;;14.50;9.47;;;;;;;19.06;51.93;101599.69;5132533;27;20216;-59
2022/03/21 00:07:46;;;;;;;15.23;9.87;;;;;;;19.07;51.89;101601.34;5133366;27;20493;-60
2022/03/21 00:10:12;;;;;;;13.23;8.70;;;;;;;19.04;52.00;101593.47;5119486;27;20181;-60
2022/03/21 00:12:39;;;;;;;14.37;8.83;;;;;;;19.03;52.20;101601.22;5112925;28;20162;-60
2022/03/21 00:15:09;;;;;;;13.90;8.30;;;;;;;19.04;52.11;101596.31;5113154;28;20228;-60
2022/03/21 00:17:37;;;;;;;16.63;9.37;;;;;;;19.06;52.00;101606.22;5125672;27;20417;-60
2022/03/21 00:20:03;;;;;;;15.20;8.80;;;;;;;19.04;52.05;101611.47;5132924;27;20403;-60
2022/03/21 00:22:28;;;;;;;16.80;8.73;;;;;;;19.04;51.95;101607.78;5129541;27;20475;-60
2022/03/21 00:24:53;;;;;;;16.50;10.03;;;;;;;19.05;52.21;101610.28;5131270;27;20181;-60
2022/03/21 00:27:19;;;;;;;14.70;9.20;;;;;;;19.03;52.05;101611.81;5131956;27;20165;-60
2022/03/21 00:29:44;;;;;;;13.60;9.13;;;;;;;19.04;51.93;101616.34;5132815;27;20183;-60
2022/03/21 00:32:10;;;;;;;17.50;9.83;;;;;;;19.04;52.05;101624.94;5133243;27;20196;-60
2022/03/21 00:34:35;;;;;;;14.40;8.20;;;;;;;19.01;52.17;101631.38;5128047;27;20173;-60
2022/03/21 00:37:01;;;;;;;14.37;8.37;;;;;;;19.01;51.93;101625.66;5112387;28;20162;-60
2022/03/21 00:39:26;;;;;;;15.57;8.57;;;;;;;19.04;52.12;101627.81;5099667;27;20188;-60
2022/03/21 00:41:51;;;;;;;15.07;9.00;;;;;;;19.03;52.12;101629.00;5119086;27;20579;-60
2022/03/21 00:44:17;;;;;;;13.03;7.87;;;;;;;19.02;51.90;101631.00;5129451;27;20173;-60
2022/03/21 00:46:43;;;;;;;13.73;8.13;;;;;;;19.00;52.29;101635.41;5131807;27;20169;-60
2022/03/21 00:49:11;;;;;;;14.90;9.50;;;;;;;19.04;52.22;101631.53;5132312;27;20494;-60
2022/03/21 00:51:38;;;;;;;14.13;8.90;;;;;;;19.07;51.72;101625.06;5112330;28;20178;-60
2022/03/21 00:54:03;;;;;;;13.53;9.10;;;;;;;19.06;51.91;101628.31;5112039;28;20510;-60
2022/03/21 00:56:29;;;;;;;11.93;8.40;;;;;;;19.06;52.21;101620.53;5111801;28;20411;-60
2022/03/21 00:58:54;;;;;;;12.73;8.07;;;;;;;19.01;52.43;101626.47;5111669;28;20521;-60
2022/03/21 01:01:20;;;;;;;14.93;8.90;;;;;;;19.04;52.11;101619.22;5111990;28;20188;-60
2022/03/21 01:03:45;;;;;;;15.20;8.57;;;;;;;19.01;52.03;101632.22;5112017;28;20270;-60
2022/03/21 01:06:11;;;;;;;13.73;8.10;;;;;;;18.99;52.36;101628.88;5111764;28;20675;-60
2022/03/21 01:08:36;;;;;;;18.90;8.00;;;;;;;19.00;52.54;101623.97;5111637;28;20201;-60
2022/03/21 01:11:02;;;;;;;12.30;7.70;;;;;;;19.00;51.99;101627.69;5111113;28;20185;-60
2022/03/21 01:13:28;;;;;;;13.60;8.80;;;;;;;19.00;52.28;101626.81;5111649;28;20252;-60
2022/03/21 01:15:53;;;;;;;14.20;7.83;;;;;;;19.01;52.08;101626.47;5111829;28;20185;-60
2022/03/21 01:18:21;;;;;;;14.80;9.10;;;;;;;19.00;52.22;101621.97;5130294;27;20609;-60
2022/03/21 01:20:47;;;;;;;12.57;9.20;;;;;;;19.00;52.25;101623.97;5131650;27;20164;-60
2022/03/21 01:23:12;;;;;;;16.00;8.70;;;;;;;19.01;52.44;101635.06;5132080;27;20398;-60
2022/03/21 01:25:38;;;;;;;12.10;7.90;;;;;;;19.02;52.23;101624.47;5132220;27;20193;-60
2022/03/21 01:28:04;;;;;;;12.70;8.60;;;;;;;19.00;52.24;101627.69;5131928;27;20657;-60
2022/03/21 01:30:30;;;;;;;14.50;8.70;;;;;;;19.00;52.13;101627.69;5131626;27;20245;-60
2022/03/21 01:32:55;;;;;;;13.27;8.00;;;;;;;19.02;52.24;101633.06;5131704;27;20176;-60
2022/03/21 01:35:21;;;;;;;13.37;8.47;;;;;;;19.01;52.13;101623.63;5131270;27;20241;-60
2022/03/21 01:37:47;;;;;;;13.00;7.80;;;;;;;19.00;52.46;101624.81;5131763;27;20176;-60
2022/03/21 01:40:13;;;;;;;11.67;8.50;;;;;;;19.00;52.38;101627.69;5117700;27;20431;-60
2022/03/21 01:42:39;;;;;;;10.57;8.00;;;;;;;18.98;52.59;101627.22;5099991;28;20178;-60
2022/03/21 01:45:05;;;;;;;13.67;8.33;;;;;;;19.01;52.12;101623.63;5111359;28;20177;-60
2022/03/21 01:47:33;;;;;;;12.00;8.87;;;;;;;19.00;52.18;101615.38;5111089;28;20918;-60
2022/03/21 01:49:58;;;;;;;13.97;8.77;;;;;;;18.98;52.55;101630.06;5110466;28;20911;-60
2022/03/21 01:52:24;;;;;;;18.53;9.37;;;;;;;19.03;52.12;101617.56;5110430;28;20396;-60
2022/03/21 01:57:34;;;;;;;13.60;8.80;;;;;;;18.98;52.64;101624.34;5110273;28;20591;-60
2022/03/21 02:00:00;;;;;;;13.53;7.77;;;;;;;18.97;52.54;101625.50;5092282;28;20415;-60
2022/03/21 02:02:25;;;;;;;10.80;7.33;;;;;;;18.97;52.40;101622.66;5121145;27;20165;-60
2022/03/21 02:04:50;;;;;;;12.83;8.30;;;;;;;19.00;52.67;101626.81;5131139;27;20221;-60
2022/03/21 02:07:17;;;;;;;11.40;7.93;;;;;;;19.01;52.36;101637.94;5130847;27;20643;-60
2022/03/21 02:09:43;;;;;;;9.30;6.70;;;;;;;18.99;52.26;101623.16;5103298;28;20216;-60
2022/03/21 02:12:09;;;;;;;13.33;8.03;;;;;;;18.99;52.19;101626.00;5092705;28;20793;-60
2022/03/21 02:14:39;;;;;;;11.47;7.97;;;;;;;19.00;52.22;101630.53;5111010;28;20634;-60
2022/03/21 02:17:05;;;;;;;10.80;7.23;;;;;;;19.01;52.32;101625.66;5116534;27;20509;-60
2022/03/21 02:19:31;;;;;;;12.50;8.20;;;;;;;19.00;52.42;101629.69;5130284;27;20512;-60
2022/03/21 02:22:19;;;;;;;11.97;7.47;;;;;;;19.01;52.30;101632.22;5131009;27;20409;-60
2022/03/21 02:24:49;;;;;;;11.13;7.60;;;;;;;18.98;52.53;101624.34;5131180;27;20428;-60
2022/03/21 02:27:16;;;;;;;10.83;8.00;;;;;;;18.96;52.92;101628.75;5130450;27;20395;-60
2022/03/21 02:29:42;;;;;;;11.27;7.27;;;;;;;18.96;52.77;101631.59;5120198;27;20493;-60
2022/03/21 02:32:08;;;;;;;11.00;8.00;;;;;;;18.98;52.33;101635.78;5091955;28;20434;-60
2022/03/21 02:34:36;;;;;;;10.90;7.77;;;;;;;19.00;52.36;101635.41;5118599;28;20177;-60
2022/03/21 02:37:01;;;;;;;13.73;7.90;;;;;;;18.96;52.29;101634.47;5113143;28;20165;-60
2022/03/21 02:39:28;;;;;;;11.17;7.03;;;;;;;18.96;52.53;101631.59;5103967;28;20415;-60
2022/03/21 02:41:53;;;;;;;9.93;7.33;;;;;;;18.95;52.64;101633.63;5117350;28;20157;-60
2022/03/21 02:44:19;;;;;;;12.07;7.90;;;;;;;18.95;52.63;101639.34;5112316;28;20440;-60
2022/03/21 02:46:45;;;;;;;12.67;7.67;;;;;;;18.97;52.39;101636.97;5109850;28;20177;-60
2022/03/21 02:49:11;;;;;;;11.33;7.10;;;;;;;18.99;52.44;101636.59;5109870;28;20194;-60
2022/03/21 02:51:37;;;;;;;10.70;7.90;;;;;;;18.99;52.56;101640.31;5075290;28;20424;-60
2022/03/21 02:54:03;;;;;;;11.10;7.20;;;;;;;18.95;52.54;101645.06;5092087;28;20207;-60
2022/03/21 02:56:28;;;;;;;10.90;7.00;;;;;;;18.97;52.55;101639.81;5110206;28;20415;-60
2022/03/21 02:58:54;;;;;;;12.17;8.20;;;;;;;18.97;52.32;101639.81;5109496;28;20154;-60
2022/03/21 03:01:19;;;;;;;10.40;7.67;;;;;;;18.98;52.22;101637.81;5109958;28;20256;-60
2022/03/21 03:03:45;;;;;;;9.60;7.10;;;;;;;18.98;52.26;101638.66;5110285;28;20668;-60
2022/03/21 03:06:10;;;;;;;11.03;7.57;;;;;;;18.98;52.27;101641.50;5110041;28;20236;-60
2022/03/21 03:08:40;;;;;;;10.03;7.50;;;;;;;18.98;52.40;101638.66;5109832;28;20226;-60
2022/03/21 03:11:06;;;;;;;10.20;6.80;;;;;;;18.95;52.41;101647.94;5109975;28;20260;-60
2022/03/21 03:13:32;;;;;;;10.23;7.33;;;;;;;18.96;52.33;101649.59;5110312;28;20407;-60
2022/03/21 03:15:57;;;;;;;11.33;7.90;;;;;;;18.94;53.04;101643.41;5109811;28;20652;-60
2022/03/21 03:18:23;;;;;;;11.30;7.83;;;;;;;18.98;52.50;101643.53;5129453;28;20188;-60
2022/03/21 03:20:51;;;;;;;10.90;7.10;;;;;;;18.94;52.41;101651.97;5130065;28;20204;-60
2022/03/21 03:23:21;;;;;;;11.20;7.17;;;;;;;18.96;52.30;101648.78;5130629;28;20314;-60
2022/03/21 03:25:47;;;;;;;10.90;7.47;;;;;;;18.97;52.47;101654.13;5130346;28;20905;-60
2022/03/21 03:28:13;;;;;;;11.03;6.93;;;;;;;18.92;52.61;101662.94;5094897;28;20443;-60
2022/03/21 03:30:39;;;;;;;9.53;7.10;;;;;;;18.92;52.86;101657.22;5129041;28;20215;-60
2022/03/21 03:33:04;;;;;;;9.20;6.70;;;;;;;18.94;52.55;101660.56;5130653;28;20252;-60
2022/03/21 03:35:30;;;;;;;7.83;6.40;;;;;;;18.95;52.47;101658.53;5129732;28;20222;-60
2022/03/21 03:37:55;;;;;;;9.80;6.50;;;;;;;18.93;52.35;101653.19;5113527;27;20191;-60
2022/03/21 03:40:21;;;;;;;13.73;7.07;;;;;;;18.95;52.47;101662.25;5112970;28;20181;-60
2022/03/21 03:42:47;;;;;;;9.23;6.70;;;;;;;18.92;52.55;101660.06;5120343;27;20162;-60
2022/03/21 03:45:13;;;;;;;9.40;7.10;;;;;;;18.93;52.60;101655.19;5113416;28;20450;-60
2022/03/21 03:47:40;;;;;;;9.70;6.50;;;;;;;18.93;52.57;101660.91;5112567;28;20667;-60
2022/03/21 03:50:06;;;;;;;9.40;6.80;;;;;;;18.94;52.55;101660.56;5112058;28;20407;-60
2022/03/21 03:52:32;;;;;;;9.90;6.37;;;;;;;18.95;52.53;101665.09;5113501;28;20431;-59
2022/03/21 03:55:00;;;;;;;11.17;6.90;;;;;;;18.95;52.47;101672.84;5115502;27;20947;-59
2022/03/21 03:57:26;;;;;;;9.00;6.13;;;;;;;18.92;52.52;101668.66;5132936;27;20173;-59
2022/03/21 03:59:51;;;;;;;9.00;6.00;;;;;;;18.91;52.70;101672.72;5132742;27;20431;-60
2022/03/21 04:02:17;;;;;;;8.90;6.67;;;;;;;18.91;52.50;101664.13;5133609;27;20157;-60
2022/03/21 04:04:42;;;;;;;9.10;6.60;;;;;;;18.95;52.35;101669.97;5133545;27;20227;-59
2022/03/21 04:07:08;;;;;;;10.07;6.43;;;;;;;18.93;52.59;101673.22;5134214;27;20191;-60
2022/03/21 04:09:33;;;;;;;9.50;6.50;;;;;;;18.94;52.75;101668.31;5124918;27;20201;-59
2022/03/21 04:11:59;;;;;;;9.53;6.77;;;;;;;18.92;52.36;101671.50;5112773;28;20169;-60
2022/03/21 04:14:25;;;;;;;9.83;6.40;;;;;;;18.93;52.77;101666.63;5112815;28;20231;-59
2022/03/21 04:16:51;;;;;;;8.60;5.83;;;;;;;18.90;52.47;101673.91;5119437;27;20890;-59
2022/03/21 04:19:16;;;;;;;8.20;6.17;;;;;;;18.92;52.74;101674.38;5129790;27;20191;-60
2022/03/21 04:21:42;;;;;;;11.53;6.47;;;;;;;18.90;52.65;101675.91;5133354;27;20170;-60
2022/03/21 04:24:07;;;;;;;12.17;6.87;;;;;;;18.91;52.43;101678.44;5133526;27;20189;-60
2022/03/21 04:26:33;;;;;;;9.27;6.10;;;;;;;18.93;52.42;101676.06;5129840;27;20169;-60
2022/03/21 04:28:59;;;;;;;7.50;6.07;;;;;;;18.95;52.44;101688.00;5114990;27;20968;-59
2022/03/21 04:31:25;;;;;;;10.33;7.00;;;;;;;18.94;52.50;101685.47;5112683;28;20188;-60
2022/03/21 04:33:50;;;;;;;9.77;7.10;;;;;;;18.94;52.40;101686.34;5112280;28;20688;-60
2022/03/21 04:36:16;;;;;;;8.67;6.13;;;;;;;18.94;52.42;101688.34;5114905;27;20696;-61
2022/03/21 04:38:41;;;;;;;8.77;6.30;;;;;;;18.92;52.80;101697.28;5112490;28;20412;-60
2022/03/21 04:41:07;;;;;;;8.60;6.70;;;;;;;18.93;52.63;101703.84;5114372;27;20647;-60
2022/03/21 04:43:32;;;;;;;8.00;6.00;;;;;;;18.92;52.34;101703.00;5126430;27;20222;-60
2022/03/21 04:45:58;;;;;;;8.40;6.10;;;;;;;18.91;52.78;101704.19;5131987;27;20609;-59
2022/03/21 04:48:24;;;;;;;9.77;6.23;;;;;;;18.94;52.49;101706.38;5129965;27;20296;-59
2022/03/21 04:50:49;;;;;;;9.43;6.50;;;;;;;18.93;52.42;101715.28;5131912;27;20206;-59
2022/03/21 04:53:16;;;;;;;9.70;6.87;;;;;;;18.94;52.40;101717.81;5132841;27;20218;-60
2022/03/21 04:55:41;;;;;;;8.73;6.37;;;;;;;18.93;52.54;101716.13;5132786;27;20165;-60
2022/03/21 04:58:07;;;;;;;9.30;6.40;;;;;;;18.93;52.62;101718.16;5132486;27;20443;-59
2022/03/21 05:00:33;;;;;;;8.40;6.77;;;;;;;18.92;52.63;101725.06;5132490;27;20184;-60
2022/03/21 05:03:00;;;;;;;8.40;6.00;;;;;;;18.90;52.42;101725.41;5132531;27;20399;-60
2022/03/21 05:05:26;;;;;;;8.80;6.20;;;;;;;18.91;52.55;101720.53;5132225;27;20307;-59
2022/03/21 05:07:54;;;;;;;8.10;5.60;;;;;;;18.91;52.62;101729.94;5114261;27;21202;-59
2022/03/21 05:10:23;;;;;;;8.93;6.03;;;;;;;18.90;52.56;101728.28;5117257;27;20189;-59
2022/03/21 05:12:50;;;;;;;8.10;5.90;;;;;;;18.91;52.36;101732.81;5111758;28;20878;-59
2022/03/21 05:15:16;;;;;;;8.10;6.10;;;;;;;18.92;52.51;101742.25;5111701;28;20469;-59
2022/03/21 05:17:41;;;;;;;9.27;6.77;;;;;;;18.90;52.30;101739.72;5125759;27;20422;-59
2022/03/21 05:20:25;;;;;;;8.10;6.40;;;;;;;18.94;52.38;101740.69;5132241;27;20196;-59
2022/03/21 05:31:04;;;;;;;9.20;6.57;;;;;;;18.91;52.73;101732.81;5125563;27;20435;-59
2022/03/21 05:36:14;;;;;;;6.93;5.37;;;;;;;18.93;52.36;101739.03;5110980;28;20223;-59
2022/03/21 05:38:40;;;;;;;7.00;5.40;;;;;;;18.91;52.54;101747.13;5111950;28;20412;-59
2022/03/21 05:41:05;;;;;;;8.90;6.10;;;;;;;18.90;52.25;101745.44;5113588;27;20181;-59
2022/03/21 05:43:32;;;;;;;9.60;6.37;;;;;;;18.90;52.53;101747.47;5115783;27;20174;-60
2022/03/21 05:46:00;;;;;;;8.10;5.80;;;;;;;18.93;52.44;101749.63;5111111;28;20217;-60
2022/03/21 05:51:09;;;;;;;8.50;6.00;;;;;;;18.92;52.32;101754.50;5127846;27;20429;-60
2022/03/21 05:53:35;;;;;;;8.73;6.30;;;;;;;18.88;52.52;101749.84;5131935;27;20883;-59
2022/03/21 05:56:01;;;;;;;9.03;5.60;;;;;;;18.88;52.45;101746.97;5131504;27;20207;-60
2022/03/21 05:58:27;;;;;;;8.87;6.07;;;;;;;18.91;52.56;101752.03;5131387;27;20176;-60
2022/03/21 06:00:53;;;;;;;11.20;7.20;;;;;;;18.92;52.41;101748.78;5130124;27;20157;-59
2022/03/21 06:03:18;;;;;;;7.50;5.50;;;;;;;18.91;52.68;101761.41;5131705;27;20403;-60
2022/03/21 06:05:45;;;;;;;8.63;6.20;;;;;;;18.95;52.17;101759.53;5124655;27;20958;-59
2022/03/21 06:08:11;;;;;;;7.53;5.70;;;;;;;18.93;52.76;101766.81;5110911;28;20242;-59
2022/03/21 06:10:36;;;;;;;8.73;6.03;;;;;;;18.93;52.61;101761.06;5110239;28;20430;-59
2022/03/21 06:13:05;;;;;;;7.00;5.30;;;;;;;18.93;52.43;101761.94;5110707;28;20154;-59
2022/03/21 06:15:35;;;;;;;10.20;6.23;;;;;;;18.95;52.51;101773.84;5110926;28;20181;-59
2022/03/21 06:18:01;;;;;;;8.87;5.70;;;;;;;18.95;52.17;101779.56;5108730;27;20484;-60
2022/03/21 06:20:27;;;;;;;8.47;6.20;;;;;;;18.95;52.15;101782.44;5130927;27;20421;-59
2022/03/21 06:22:52;;;;;;;8.10;5.67;;;;;;;18.93;52.35;101779.09;5127734;27;20969;-60
2022/03/21 06:25:18;;;;;;;6.80;5.30;;;;;;;18.93;52.52;101783.97;5131002;27;20607;-59
2022/03/21 06:27:44;;;;;;;7.07;5.63;;;;;;;18.91;52.34;101784.31;5120338;27;20188;-59
2022/03/21 06:30:10;;;;;;;9.43;6.67;;;;;;;18.88;52.99;101787.88;5112431;27;20568;-60
2022/03/21 06:32:37;;;;;;;6.83;5.10;;;;;;;18.93;52.37;101789.69;5124382;27;20169;-60
2022/03/21 06:35:03;;;;;;;7.47;5.60;;;;;;;18.94;52.34;101791.38;5094426;27;20417;-59
2022/03/21 06:37:29;;;;;;;7.73;6.00;;;;;;;18.94;52.30;101795.09;5110472;28;20415;-60
2022/03/21 06:39:55;;;;;;;9.07;6.40;;;;;;;18.96;53.05;101797.59;5112223;28;20419;-60
2022/03/21 06:42:21;;;;;;;8.10;5.70;;;;;;;18.93;52.37;101801.16;5099607;28;20572;-59
2022/03/21 06:44:50;;;;;;;8.20;5.87;;;;;;;18.92;52.34;101808.88;5112997;28;20192;-60
2022/03/21 06:47:17;;;;;;;9.13;6.03;;;;;;;18.95;52.35;101799.63;5092211;28;20422;-60
2022/03/21 06:49:42;;;;;;;7.00;5.43;;;;;;;18.96;52.46;101812.72;5109478;28;20449;-59
2022/03/21 06:52:11;;;;;;;7.50;5.20;;;;;;;18.90;52.62;101811.25;5110322;28;20440;-60
2022/03/21 06:54:37;;;;;;;6.60;4.67;;;;;;;18.92;52.32;101813.78;5110580;28;20572;-60
2022/03/21 06:57:03;;;;;;;7.20;5.60;;;;;;;18.93;52.34;101812.59;5110369;28;20495;-59
2022/03/21 06:59:29;;;;;;;7.60;5.27;;;;;;;18.94;52.16;101814.25;5110242;28;20671;-59
2022/03/21 07:01:56;;;;;;;7.70;5.80;;;;;;;18.93;52.14;101819.16;5110206;28;20412;-59
2022/03/21 07:04:22;;;;;;;7.73;5.70;;;;;;;18.94;52.79;101820.00;5109863;28;20197;-60
2022/03/21 07:06:48;;;;;;;7.40;4.90;;;;;;;18.92;52.54;101819.50;5110355;28;20781;-59
2022/03/21 07:09:14;;;;;;;8.80;5.63;;;;;;;18.92;52.37;101822.38;5109624;28;20455;-59
2022/03/21 07:11:39;;;;;;;10.20;6.80;;;;;;;18.96;52.08;101823.34;5110548;28;20158;-60
2022/03/21 07:14:05;;;;;;;7.17;5.27;;;;;;;18.93;52.15;101824.91;5113559;28;20158;-59
2022/03/21 07:16:30;;;;;;;8.60;5.47;;;;;;;18.92;52.65;101826.06;5116853;27;20235;-60
2022/03/21 07:18:56;;;;;;;7.63;5.57;;;;;;;18.92;52.35;101823.19;5134095;27;20236;-59
2022/03/21 07:21:21;;;;;;;7.90;4.70;;;;;;;18.91;52.63;101818.66;5134807;27;20488;-59
2022/03/21 07:23:47;;;;;;;6.80;5.47;;;;;;;18.91;52.59;101818.66;5126624;27;20178;-60
2022/03/21 07:26:13;;;;;;;8.47;5.40;;;;;;;18.94;52.32;101826.56;5113776;28;20182;-60
2022/03/21 07:28:39;;;;;;;7.27;4.87;;;;;;;18.94;52.44;101829.44;5096037;28;20204;-59
2022/03/21 07:31:09;;;;;;;7.83;5.27;;;;;;;18.94;52.42;101834.28;5113405;28;20412;-59
2022/03/21 07:33:38;;;;;;;7.77;4.93;;;;;;;18.93;52.43;101836.34;5113801;28;20161;-59
2022/03/21 07:36:04;;;;;;;9.47;6.10;;;;;;;18.94;52.28;101843.72;5113034;28;20412;-59
2022/03/21 07:38:29;;;;;;;10.00;5.80;;;;;;;18.92;52.24;101834.63;5113593;28;20388;-59
2022/03/21 07:40:55;;;;;;;6.97;5.13;;;;;;;18.90;52.48;101848.47;5113087;28;20188;-60
2022/03/21 07:43:21;;;;;;;7.37;5.13;;;;;;;18.89;52.66;101854.53;5113358;28;20177;-60
2022/03/21 07:48:31;;;;;;;7.17;5.00;;;;;;;18.93;52.38;101855.53;5112316;28;20296;-59
2022/03/21 07:50:56;;;;;;;6.43;4.53;;;;;;;18.91;52.50;101860.75;5113060;28;20415;-59
2022/03/21 07:53:22;;;;;;;7.37;5.83;;;;;;;18.94;52.43;101857.19;5113357;28;20256;-59
2022/03/21 07:55:47;;;;;;;6.43;5.27;;;;;;;18.92;52.58;101851.81;5113652;28;20589;-61
2022/03/21 07:58:13;;;;;;;8.77;5.80;;;;;;;18.93;52.34;101862.09;5097739;28;20578;-60
2022/03/21 08:00:41;;;;;;;5.73;4.33;;;;;;;18.90;52.09;101859.91;5112732;28;20181;-60
2022/03/21 08:03:09;;;;;;;7.20;4.77;;;;;;;18.91;52.33;101855.84;5113157;28;20178;-59
2022/03/21 08:05:34;;;;;;;8.90;5.03;;;;;;;18.95;52.09;101856.84;5113062;28;20829;-59
2022/03/21 08:08:00;;;;;;;6.97;5.13;;;;;;;18.94;52.26;101857.19;5112920;28;20451;-59
2022/03/21 08:10:25;;;;;;;7.77;5.40;;;;;;;18.92;52.17;101860.41;5112541;28;20190;-59
2022/03/21 08:12:51;;;;;;;7.73;5.40;;;;;;;18.91;52.26;101864.44;5112306;28;20170;-60
2022/03/21 08:15:17;;;;;;;7.00;5.57;;;;;;;18.90;52.26;101864.78;5112227;28;20313;-60
2022/03/21 08:17:50;;;;;;;6.60;4.63;;;;;;;18.91;52.39;101869.34;5126394;27;20253;-60
2022/03/21 08:20:18;;;;;;;8.00;5.50;;;;;;;18.90;52.22;101862.78;5123964;27;20997;-60
2022/03/21 08:22:43;;;;;;;7.17;4.90;;;;;;;18.91;52.68;101855.84;5125958;27;20534;-60
2022/03/21 08:25:09;;;;;;;7.17;5.53;;;;;;;18.90;52.47;101865.63;5117277;27;20898;-60
2022/03/21 08:27:36;;;;;;;6.73;5.20;;;;;;;18.91;52.26;101863.63;5120919;27;20173;-60
2022/03/21 08:30:01;;;;;;;5.67;4.60;;;;;;;18.92;52.27;101871.03;5132949;27;20201;-60
2022/03/21 08:32:27;;;;;;;7.03;5.07;;;;;;;18.92;52.54;101874.69;5133119;27;20882;-59
2022/03/21 08:34:52;;;;;;;7.70;4.73;;;;;;;18.92;52.44;101876.75;5132862;27;20631;-59
2022/03/21 08:37:19;;;;;;;7.03;4.93;;;;;;;18.93;52.12;101869.84;5132466;27;20161;-60
2022/03/21 08:39:44;;;;;;;7.27;5.10;;;;;;;18.93;52.43;101864.97;5121549;27;20712;-60
2022/03/21 08:42:10;;;;;;;7.70;5.33;;;;;;;18.95;52.32;101870.31;5117774;27;20514;-60
2022/03/21 08:44:37;;;;;;;8.50;5.33;;;;;;;18.95;52.52;101871.16;5112470;28;20633;-60
2022/03/21 08:47:03;;;;;;;6.73;4.87;;;;;;;18.91;52.46;101861.59;5115872;27;20173;-60
2022/03/21 08:49:33;;;;;;;7.47;4.80;;;;;;;18.92;52.35;101862.44;5130627;27;20458;-60
2022/03/21 08:51:59;;;;;;;6.73;4.83;;;;;;;18.95;52.18;101856.84;5133064;27;20593;-60
2022/03/21 08:54:25;;;;;;;7.13;4.97;;;;;;;18.95;52.51;101861.72;5132933;27;20406;-60
2022/03/21 08:56:50;;;;;;;6.60;4.77;;;;;;;18.93;52.32;101862.09;5132296;27;20299;-60
2022/03/21 08:59:16;;;;;;;7.10;4.90;;;;;;;18.95;52.22;101858.88;5132209;27;20158;-60
2022/03/21 09:01:41;;;;;;;6.60;4.70;;;;;;;18.94;52.20;101858.03;5132155;27;20171;-60
2022/03/21 09:04:08;;;;;;;6.90;5.00;;;;;;;18.92;52.12;101853.84;5131673;27;20197;-60
2022/03/21 09:06:34;;;;;;;6.53;4.93;;;;;;;18.91;52.14;101855.03;5132399;27;20288;-60
2022/03/21 09:08:59;;;;;;;6.83;5.17;;;;;;;18.91;52.43;101861.59;5128580;27;20459;-60
2022/03/21 09:11:26;;;;;;;6.20;5.03;;;;;;;18.90;52.35;101856.19;5111514;28;20256;-60
2022/03/21 09:13:51;;;;;;;6.30;4.87;;;;;;;18.92;51.82;101853.84;5112178;28;20555;-60
2022/03/21 09:16:17;;;;;;;8.53;5.60;;;;;;;18.91;52.68;101855.84;5111872;27;20479;-60
2022/03/21 09:18:43;;;;;;;7.70;5.17;;;;;;;18.93;52.32;101859.22;5132183;27;20177;-60
2022/03/21 09:21:09;;;;;;;6.90;4.70;;;;;;;18.94;52.17;101866.63;5113428;27;20173;-60
2022/03/21 09:23:35;;;;;;;7.00;4.40;;;;;;;18.95;52.29;101861.72;5132396;27;20425;-60
2022/03/21 09:26:01;;;;;;;6.33;4.90;;;;;;;18.92;52.16;101854.66;5131814;27;20399;-59
2022/03/21 09:28:28;;;;;;;6.03;4.67;;;;;;;18.90;52.18;101859.91;5131642;27;20777;-60
2022/03/21 09:30:54;;;;;;;7.07;4.80;;;;;;;18.90;52.19;101859.91;5130581;27;20173;-59
2022/03/21 09:33:20;;;;;;;6.30;5.10;;;;;;;18.92;52.15;101856.72;5132256;27;20428;-60
2022/03/21 09:35:47;;;;;;;5.80;4.43;;;;;;;18.92;52.71;101857.53;5131033;27;20468;-60
2022/03/21 09:38:14;;;;;;;6.20;4.70;;;;;;;18.93;52.36;101855.53;5131770;27;20184;-60
2022/03/21 09:40:41;;;;;;;5.73;4.73;;;;;;;18.92;52.16;101856.72;5114238;27;20600;-60
2022/03/21 09:43:08;;;;;;;6.17;4.70;;;;;;;18.90;52.19;101859.91;5118497;27;20462;-60
2022/03/21 09:45:33;;;;;;;6.30;4.80;;;;;;;18.91;52.43;101850.13;5111427;28;21084;-60
2022/03/21 09:48:17;;;;;;;6.27;4.87;;;;;;;18.89;52.65;101845.94;5092835;28;20515;-60
2022/03/21 09:50:44;;;;;;;7.70;5.10;;;;;;;18.90;52.58;101845.59;5110221;28;20182;-60
2022/03/21 09:53:12;;;;;;;7.07;4.87;;;;;;;18.87;52.42;101845.47;5110008;28;20399;-60
2022/03/21 09:55:38;;;;;;;6.50;4.90;;;;;;;18.87;52.50;101840.56;5111376;28;20826;-60
2022/03/21 09:58:03;;;;;;;6.80;4.70;;;;;;;18.90;52.34;101839.88;5092519;28;20438;-60
2022/03/21 10:00:29;;;;;;;6.57;4.27;;;;;;;18.90;52.26;101837.03;5110646;28;20644;-60
2022/03/21 10:02:56;;;;;;;7.50;4.43;;;;;;;18.90;52.25;101825.56;5112965;27;20594;-60
2022/03/21 10:05:33;;;;;;;6.07;4.30;;;;;;;18.91;52.25;101832.16;5130761;27;20597;-60
2022/03/21 10:08:15;;;;;;;6.60;4.50;;;;;;;18.91;52.18;101827.25;5131502;27;20403;-60
2022/03/21 10:10:50;;;;;;;5.47;4.20;;;;;;;18.88;52.41;101832.81;5113223;27;20453;-60
2022/03/21 10:13:17;;;;;;;7.90;4.10;;;;;;;18.88;52.37;101822.22;5110913;27;20433;-60
2022/03/21 10:15:43;;;;;;;6.57;4.60;;;;;;;18.91;52.29;101821.53;5118365;27;20449;-60
2022/03/21 10:18:33;;;;;;;6.50;4.73;;;;;;;18.91;52.16;101818.66;5112584;27;20457;-60
2022/03/21 10:21:14;;;;;;;6.90;4.77;;;;;;;18.93;52.32;101809.72;5130321;27;20275;-61
2022/03/21 10:23:40;;;;;;;5.80;4.40;;;;;;;18.91;52.21;101807.22;5131292;27;20414;-60
2022/03/21 10:26:28;;;;;;;5.43;4.17;;;;;;;18.91;52.27;101810.06;5131451;27;20863;-60
2022/03/21 10:28:55;;;;;;;8.90;4.70;;;;;;;18.93;52.32;101809.72;5127637;27;20486;-60
2022/03/21 10:31:42;;;;;;;9.00;4.70;;;;;;;18.92;52.25;101808.88;5130870;27;20487;-60
2022/03/21 10:34:12;;;;;;;6.80;4.37;;;;;;;18.90;52.35;101805.53;5125325;27;20404;-60
2022/03/21 10:37:06;;;;;;;6.33;4.67;;;;;;;18.92;52.08;101808.88;5110843;28;20430;-60
2022/03/21 10:39:33;;;;;;;5.87;5.00;;;;;;;18.92;52.15;101811.75;5114074;27;20430;-60
2022/03/21 10:42:16;;;;;;;5.77;3.97;;;;;;;18.92;52.23;101805.19;5120046;28;20761;-60
2022/03/21 10:44:52;;;;;;;6.77;4.87;;;;;;;18.92;52.50;101800.28;5110384;28;20396;-60
2022/03/21 10:47:18;;;;;;;5.93;4.40;;;;;;;18.93;52.24;101801.16;5096560;27;20535;-60
2022/03/21 10:49:44;;;;;;;6.70;4.87;;;;;;;18.93;52.33;101802.00;5113514;28;20464;-59
2022/03/21 10:52:19;;;;;;;8.27;4.77;;;;;;;18.95;52.23;101805.34;5115201;27;20205;-60
2022/03/21 10:54:48;;;;;;;5.80;4.50;;;;;;;18.92;52.18;101800.28;5114331;28;20488;-61
2022/03/21 10:57:28;;;;;;;5.73;3.80;;;;;;;18.95;51.96;101798.75;5114777;28;20427;-60
2022/03/21 11:00:20;;;;;;;6.67;4.63;;;;;;;18.92;52.51;101797.44;5113743;28;20400;-60
2022/03/21 11:02:51;;;;;;;5.63;4.30;;;;;;;18.95;52.20;101788.16;5114577;28;20987;-60
2022/03/21 11:05:17;;;;;;;6.30;4.67;;;;;;;18.97;51.96;101785.78;5113990;28;20475;-60
2022/03/21 11:07:46;;;;;;;6.53;4.60;;;;;;;18.99;51.87;101792.00;5114597;28;20751;-60
2022/03/21 11:10:12;;;;;;;6.50;4.90;;;;;;;18.98;52.29;101790.34;5112997;28;20206;-60
2022/03/21 11:12:42;;;;;;;5.87;4.60;;;;;;;18.97;52.16;101780.06;5114650;28;20434;-60
2022/03/21 11:15:11;;;;;;;6.47;4.37;;;;;;;18.98;52.10;101781.75;5114154;28;20158;-60
2022/03/21 11:17:37;;;;;;;8.13;4.57;;;;;;;19.00;52.21;101779.38;5127043;27;20792;-60
2022/03/21 11:20:04;;;;;;;5.40;3.80;;;;;;;18.99;52.29;101777.69;5134177;27;20436;-60
2022/03/21 11:22:29;;;;;;;5.63;4.20;;;;;;;18.98;51.99;101772.31;5134558;27;20173;-60
2022/03/21 11:25:04;;;;;;;7.47;4.53;;;;;;;19.01;52.14;101766.72;5134388;27;20453;-59
2022/03/21 11:27:57;;;;;;;6.83;4.37;;;;;;;19.02;52.43;101768.41;5134625;27;20635;-60
2022/03/21 11:30:44;;;;;;;5.97;4.17;;;;;;;19.05;52.12;101767.72;5132557;27;20547;-60
2022/03/21 11:33:19;;;;;;;4.50;3.50;;;;;;;19.05;51.78;101767.72;5134781;27;20789;-60
2022/03/21 11:35:51;;;;;;;6.60;4.90;;;;;;;19.06;51.91;101762.84;5132670;27;20417;-59
2022/03/21 11:38:24;;;;;;;6.80;4.17;;;;;;;19.05;52.17;101758.28;5134131;27;20472;-60
2022/03/21 11:40:49;;;;;;;5.53;4.30;;;;;;;19.07;51.95;101750.19;5115021;27;20507;-59